createdAt,value
2018-09-03T00:02:14.374Z,15.10
2018-09-03T00:04:42.794Z,15.10
2018-09-03T00:07:11.512Z,15.10
2018-09-03T00:09:40.316Z,15.00
2018-09-03T00:12:10.007Z,15.10
2018-09-03T00:14:39.339Z,15.10
2018-09-03T00:17:08.886Z,15.10
2018-09-03T00:19:37.852Z,15.10
2018-09-03T00:22:06.796Z,15.10
2018-09-03T00:24:35.185Z,15.20
2018-09-03T00:27:03.594Z,15.20
2018-09-03T00:29:32.017Z,15.20
2018-09-03T00:32:05.628Z,15.20
2018-09-03T00:34:39.754Z,15.20
2018-09-03T00:37:13.539Z,15.30
2018-09-03T00:39:47.453Z,15.20
2018-09-03T00:42:21.107Z,15.20
2018-09-03T00:44:55.154Z,15.20
2018-09-03T00:47:23.599Z,15.20
2018-09-03T00:49:52.025Z,15.10
2018-09-03T00:52:20.414Z,15.10
2018-09-03T00:54:48.825Z,15.00
2018-09-03T00:57:17.222Z,15.00
2018-09-03T00:59:45.618Z,15.00
2018-09-03T01:02:14.406Z,15.00
2018-09-03T01:04:42.822Z,15.00
2018-09-03T01:07:11.412Z,15.00
2018-09-03T01:09:39.803Z,15.00
2018-09-03T01:12:08.202Z,15.00
2018-09-03T01:14:36.602Z,15.00
2018-09-03T01:17:04.992Z,15.00
2018-09-03T01:19:33.391Z,15.10
2018-09-03T01:22:01.794Z,15.10
2018-09-03T01:24:30.222Z,15.10
2018-09-03T01:26:58.631Z,15.10
2018-09-03T01:29:27.081Z,15.10
2018-09-03T01:31:56.572Z,15.20
2018-09-03T01:34:27.223Z,15.10
2018-09-03T01:36:55.615Z,15.10
2018-09-03T01:39:24.014Z,15.10
2018-09-03T01:41:52.413Z,15.10
2018-09-03T01:44:20.813Z,15.10
2018-09-03T01:46:49.224Z,15.10
2018-09-03T01:49:17.621Z,15.10
2018-09-03T01:51:46.984Z,15.20
2018-09-03T01:54:15.398Z,15.20
2018-09-03T01:56:43.792Z,15.20
2018-09-03T01:59:12.198Z,15.30
2018-09-03T02:01:40.599Z,15.30
2018-09-03T02:04:09.390Z,15.30
2018-09-03T02:06:37.786Z,15.40
2018-09-03T02:09:10.780Z,15.30
2018-09-03T02:11:40.437Z,15.40
2018-09-03T02:14:08.830Z,15.40
2018-09-03T02:16:38.598Z,15.40
2018-09-03T02:19:08.601Z,15.50
2018-09-03T02:21:37.991Z,15.50
2018-09-03T02:24:06.402Z,15.40
2018-09-03T02:26:35.107Z,15.50
2018-09-03T02:29:03.505Z,15.50
2018-09-03T02:31:32.560Z,15.40
2018-09-03T02:34:00.963Z,15.40
2018-09-03T02:36:29.374Z,15.40
2018-09-03T02:38:57.767Z,15.30
2018-09-03T02:41:26.159Z,15.30
2018-09-03T02:43:54.554Z,15.30
2018-09-03T02:46:23.295Z,15.20
2018-09-03T02:48:51.689Z,15.10
2018-09-03T02:51:20.766Z,15.10
2018-09-03T02:53:49.175Z,15.00
2018-09-03T02:56:17.577Z,14.90
2018-09-03T02:58:45.957Z,14.90
2018-09-03T03:01:14.689Z,14.80
2018-09-03T03:03:43.116Z,14.80
2018-09-03T03:06:14.735Z,14.70
2018-09-03T03:08:44.366Z,14.70
2018-09-03T03:11:13.226Z,14.60
2018-09-03T03:13:41.844Z,14.60
2018-09-03T03:16:10.265Z,14.70
2018-09-03T03:18:38.825Z,14.70
2018-09-03T03:21:07.664Z,14.70
2018-09-03T03:23:36.054Z,14.80
2018-09-03T03:26:05.151Z,14.80
2018-09-03T03:28:33.556Z,14.80
2018-09-03T03:31:01.958Z,14.70
2018-09-03T03:33:30.610Z,14.70
2018-09-03T03:35:59.526Z,14.60
2018-09-03T03:38:27.938Z,14.50
2018-09-03T03:40:56.326Z,14.50
2018-09-03T03:43:24.722Z,14.50
2018-09-03T03:45:53.132Z,14.50
2018-09-03T03:48:21.980Z,14.60
2018-09-03T03:50:50.410Z,14.60
2018-09-03T03:53:18.798Z,14.70
2018-09-03T03:55:47.198Z,14.70
2018-09-03T03:58:15.604Z,14.70
2018-09-03T04:00:44.575Z,14.70
2018-09-03T04:03:13.612Z,14.70
2018-09-03T04:05:42.018Z,14.70
2018-09-03T04:08:10.421Z,14.70
2018-09-03T04:10:38.837Z,14.70
2018-09-03T04:13:07.231Z,14.80
2018-09-03T04:15:36.895Z,14.70
2018-09-03T04:18:05.291Z,14.70
2018-09-03T04:20:33.687Z,14.70
2018-09-03T04:23:02.124Z,14.70
2018-09-03T04:25:30.515Z,14.60
2018-09-03T04:27:58.964Z,14.70
2018-09-03T04:30:27.834Z,14.60
2018-09-03T04:33:01.917Z,14.60
2018-09-03T04:35:30.340Z,14.50
2018-09-03T04:37:58.739Z,14.50
2018-09-03T04:40:27.408Z,14.40
2018-09-03T04:42:55.849Z,14.40
2018-09-03T04:45:24.368Z,14.50
2018-09-03T04:47:52.790Z,14.50
2018-09-03T04:50:21.214Z,14.50
2018-09-03T04:52:49.614Z,14.50
2018-09-03T04:55:18.243Z,14.60
2018-09-03T04:57:47.152Z,14.60
2018-09-03T05:00:16.229Z,14.70
2018-09-03T05:02:45.792Z,14.70
2018-09-03T05:05:14.684Z,14.80
2018-09-03T05:07:43.056Z,14.90
2018-09-03T05:10:11.464Z,14.90
2018-09-03T05:12:40.134Z,14.90
2018-09-03T05:15:08.540Z,15.00
2018-09-03T05:17:36.938Z,15.00
2018-09-03T05:20:06.037Z,15.00
2018-09-03T05:22:34.455Z,14.90
2018-09-03T05:25:02.871Z,15.00
2018-09-03T05:27:31.266Z,15.00
2018-09-03T05:29:59.725Z,15.10
2018-09-03T05:32:28.147Z,15.10
2018-09-03T05:34:56.557Z,15.20
2018-09-03T05:37:25.003Z,15.20
2018-09-03T05:39:53.410Z,15.30
2018-09-03T05:42:21.823Z,15.30
2018-09-03T05:44:50.218Z,15.30
2018-09-03T05:47:18.623Z,15.30
2018-09-03T05:49:47.444Z,15.40
2018-09-03T05:52:15.865Z,15.40
2018-09-03T05:54:44.447Z,15.40
2018-09-03T05:57:12.891Z,15.50
2018-09-03T05:59:41.291Z,15.50
2018-09-03T06:02:10.227Z,15.50
2018-09-03T06:04:38.750Z,15.50
2018-09-03T06:07:07.203Z,15.50
2018-09-03T06:09:35.619Z,15.50
2018-09-03T06:12:04.155Z,15.50
2018-09-03T06:14:32.650Z,15.50
2018-09-03T06:17:01.783Z,15.50
2018-09-03T06:19:31.311Z,15.50
2018-09-03T06:21:59.711Z,15.60
2018-09-03T06:24:28.104Z,15.70
2018-09-03T06:26:56.504Z,15.80
2018-09-03T06:29:24.926Z,15.90
2018-09-03T06:31:53.545Z,15.90
2018-09-03T06:34:21.939Z,16.00
2018-09-03T06:36:51.162Z,16.10
2018-09-03T06:39:19.627Z,16.20
2018-09-03T06:41:47.994Z,16.30
2018-09-03T06:44:16.970Z,16.40
2018-09-03T06:46:45.398Z,16.60
2018-09-03T06:49:13.793Z,16.70
2018-09-03T06:51:42.192Z,16.80
2018-09-03T06:54:10.627Z,16.80
2018-09-03T06:56:39.112Z,16.90
2018-09-03T06:59:07.508Z,16.90
2018-09-03T07:01:36.485Z,16.90
2018-09-03T07:04:04.917Z,16.90
2018-09-03T07:06:33.979Z,16.90
2018-09-03T07:09:02.408Z,17.00
2018-09-03T07:11:31.292Z,17.00
2018-09-03T07:14:00.284Z,17.10
2018-09-03T07:16:29.281Z,17.10
2018-09-03T07:18:57.690Z,17.10
2018-09-03T07:21:26.087Z,17.20
2018-09-03T07:23:54.470Z,17.20
2018-09-03T07:26:23.616Z,17.30
2018-09-03T07:28:52.046Z,17.30
2018-09-03T07:31:20.468Z,17.50
2018-09-03T07:33:48.854Z,17.60
2018-09-03T07:36:17.230Z,17.70
2018-09-03T07:38:45.645Z,17.80
2018-09-03T07:41:14.048Z,17.80
2018-09-03T07:43:42.443Z,18.00
2018-09-03T07:46:11.265Z,18.10
2018-09-03T07:48:39.731Z,18.10
2018-09-03T07:51:08.637Z,18.20
2018-09-03T07:53:37.001Z,18.10
2018-09-03T07:56:07.259Z,18.20
2018-09-03T07:58:35.684Z,18.20
2018-09-03T08:01:04.590Z,18.30
2018-09-03T08:03:32.985Z,18.50
2018-09-03T08:06:01.436Z,18.60
2018-09-03T08:08:30.515Z,18.70
2018-09-03T08:10:59.098Z,18.80
2018-09-03T08:13:32.712Z,18.90
2018-09-03T08:16:01.119Z,19.00
2018-09-03T08:18:29.521Z,19.10
2018-09-03T08:20:58.034Z,19.20
2018-09-03T08:23:26.578Z,19.30
2018-09-03T08:25:55.114Z,19.40
2018-09-03T08:28:24.244Z,19.50
2018-09-03T08:30:52.874Z,19.50
2018-09-03T08:33:21.288Z,19.50
2018-09-03T08:35:49.686Z,19.60
2018-09-03T08:38:18.398Z,19.60
2018-09-03T08:40:46.821Z,19.70
2018-09-03T08:43:15.233Z,19.70
2018-09-03T08:45:45.002Z,19.70
2018-09-03T08:48:13.420Z,19.70
2018-09-03T08:50:41.973Z,19.80
2018-09-03T08:53:10.385Z,19.80
2018-09-03T08:55:38.816Z,19.80
2018-09-03T08:58:07.237Z,19.80
2018-09-03T09:00:35.639Z,19.80
2018-09-03T09:03:04.077Z,19.80
2018-09-03T09:05:32.479Z,19.80
2018-09-03T09:08:01.209Z,19.70
2018-09-03T09:10:29.609Z,19.80
2018-09-03T09:12:58.003Z,19.80
2018-09-03T09:15:26.405Z,19.80
2018-09-03T09:17:54.918Z,19.80
2018-09-03T09:20:23.327Z,19.80
2018-09-03T09:22:51.755Z,19.80
2018-09-03T09:25:20.161Z,19.90
2018-09-03T09:27:49.147Z,19.90
2018-09-03T09:30:17.554Z,19.90
2018-09-03T09:32:45.965Z,19.90
2018-09-03T09:35:14.385Z,20.00
2018-09-03T09:37:43.169Z,20.10
2018-09-03T09:40:11.568Z,20.10
2018-09-03T09:42:41.498Z,20.20
2018-09-03T09:45:10.985Z,20.30
2018-09-03T09:47:39.388Z,20.40
2018-09-03T09:50:07.809Z,20.50
2018-09-03T09:52:36.201Z,20.60
2018-09-03T09:55:05.066Z,20.70
2018-09-03T09:57:33.936Z,20.70
2018-09-03T10:00:02.330Z,20.70
2018-09-03T10:02:30.732Z,20.80
2018-09-03T10:04:59.348Z,20.80
2018-09-03T10:07:27.763Z,20.80
2018-09-03T10:09:56.151Z,20.80
2018-09-03T10:12:30.001Z,20.80
2018-09-03T10:14:59.564Z,20.80
2018-09-03T10:17:29.063Z,20.80
2018-09-03T10:19:58.603Z,20.70
2018-09-03T10:22:27.037Z,20.70
2018-09-03T10:24:55.438Z,20.70
2018-09-03T10:27:23.826Z,20.70
2018-09-03T10:29:52.226Z,20.60
2018-09-03T10:32:21.460Z,20.50
2018-09-03T10:34:49.862Z,20.60
2018-09-03T10:37:18.304Z,20.60
2018-09-03T10:39:46.789Z,20.60
2018-09-03T10:42:19.399Z,20.80
2018-09-03T10:44:47.795Z,21.00
2018-09-03T10:47:16.437Z,21.10
2018-09-03T10:49:44.627Z,21.30
2018-09-03T10:52:13.003Z,21.40
2018-09-03T10:54:41.421Z,21.50
2018-09-03T10:57:09.818Z,21.60
2018-09-03T10:59:38.227Z,21.70
2018-09-03T11:02:07.271Z,21.60
2018-09-03T11:04:36.233Z,21.60
2018-09-03T11:07:04.668Z,21.60
2018-09-03T11:09:33.079Z,21.80
2018-09-03T11:12:01.515Z,22.00
2018-09-03T11:14:29.943Z,22.10
2018-09-03T11:16:58.327Z,22.20
2018-09-03T11:19:29.828Z,22.20
2018-09-03T11:21:59.165Z,22.20
2018-09-03T11:24:28.173Z,22.20
2018-09-03T11:26:57.194Z,22.10
2018-09-03T11:29:25.599Z,22.10
2018-09-03T11:31:54.003Z,22.10
2018-09-03T11:34:22.439Z,22.00
2018-09-03T11:36:50.818Z,22.00
2018-09-03T11:39:19.218Z,22.00
2018-09-03T11:41:47.613Z,21.90
2018-09-03T11:44:16.014Z,21.90
2018-09-03T11:46:44.408Z,21.90
2018-09-03T11:49:12.866Z,21.90
2018-09-03T11:51:41.258Z,21.90
2018-09-03T11:54:09.638Z,21.90
2018-09-03T11:56:38.048Z,22.00
2018-09-03T11:59:06.450Z,21.90
2018-09-03T12:01:34.882Z,21.90
2018-09-03T12:04:03.278Z,22.00
2018-09-03T12:06:31.706Z,21.90
2018-09-03T12:09:00.097Z,21.80
2018-09-03T12:11:28.504Z,21.80
2018-09-03T12:13:57.663Z,21.70
2018-09-03T12:16:27.691Z,21.60
2018-09-03T12:18:58.476Z,21.60
2018-09-03T12:21:26.866Z,21.50
2018-09-03T12:23:55.264Z,21.40
2018-09-03T12:26:23.682Z,21.40
2018-09-03T12:28:52.087Z,21.40
2018-09-03T12:31:20.534Z,21.40
2018-09-03T12:33:48.943Z,21.60
2018-09-03T12:36:17.342Z,21.60
2018-09-03T12:38:45.731Z,21.80
2018-09-03T12:41:14.329Z,21.80
2018-09-03T12:43:42.778Z,21.90
2018-09-03T12:46:11.163Z,21.80
2018-09-03T12:48:40.135Z,21.90
2018-09-03T12:51:08.615Z,21.90
2018-09-03T12:53:36.959Z,21.90
2018-09-03T12:56:05.407Z,21.90
2018-09-03T12:58:33.855Z,21.80
2018-09-03T13:01:02.263Z,21.80
2018-09-03T13:03:30.665Z,21.80
2018-09-03T13:05:59.051Z,21.80
2018-09-03T13:08:27.469Z,21.80
2018-09-03T13:10:56.467Z,21.80
2018-09-03T13:13:24.872Z,21.80
2018-09-03T13:15:53.921Z,21.80
2018-09-03T13:18:22.293Z,21.80
2018-09-03T13:20:50.697Z,21.80
2018-09-03T13:23:19.083Z,21.70
2018-09-03T13:25:47.477Z,21.60
2018-09-03T13:28:15.901Z,21.50
2018-09-03T13:30:44.373Z,21.40
2018-09-03T13:33:12.728Z,21.30
2018-09-03T13:35:41.129Z,21.30
2018-09-03T13:38:09.531Z,21.30
2018-09-03T13:40:38.786Z,21.20
2018-09-03T13:43:07.181Z,21.30
2018-09-03T13:45:35.582Z,21.30
2018-09-03T13:48:03.988Z,21.20
2018-09-03T13:50:32.394Z,21.20
2018-09-03T13:53:00.796Z,21.20
2018-09-03T13:55:29.206Z,21.10
2018-09-03T13:57:57.598Z,21.00
2018-09-03T14:00:26.028Z,20.90
2018-09-03T14:02:54.425Z,20.90
2018-09-03T14:05:23.705Z,20.80
2018-09-03T14:07:52.086Z,20.80
2018-09-03T14:10:20.486Z,20.70
2018-09-03T14:12:48.898Z,20.70
2018-09-03T14:15:17.297Z,20.70
2018-09-03T14:17:46.108Z,20.60
2018-09-03T14:20:14.510Z,20.60
2018-09-03T14:22:43.594Z,20.60
2018-09-03T14:25:11.989Z,20.50
2018-09-03T14:27:40.387Z,20.50
2018-09-03T14:30:08.790Z,20.50
2018-09-03T14:32:37.175Z,20.40
2018-09-03T14:35:05.591Z,20.40
2018-09-03T14:37:33.993Z,20.40
2018-09-03T14:40:02.393Z,20.40
2018-09-03T14:42:30.913Z,20.50
2018-09-03T14:44:59.297Z,20.40
2018-09-03T14:47:27.683Z,20.50
2018-09-03T14:49:56.242Z,20.50
2018-09-03T14:52:24.665Z,20.50
2018-09-03T14:54:53.085Z,20.50
2018-09-03T14:57:21.539Z,20.50
2018-09-03T14:59:50.335Z,20.50
2018-09-03T15:02:18.839Z,20.40
2018-09-03T15:04:47.221Z,20.40
2018-09-03T15:07:15.648Z,20.40
2018-09-03T15:09:44.909Z,20.30
2018-09-03T15:12:13.303Z,20.40
2018-09-03T15:14:42.085Z,20.40
2018-09-03T15:17:10.493Z,20.50
2018-09-03T15:19:38.893Z,20.50
2018-09-03T15:22:07.324Z,20.60
2018-09-03T15:24:35.710Z,20.50
2018-09-03T15:27:04.499Z,20.60
2018-09-03T15:29:32.914Z,20.60
2018-09-03T15:32:01.854Z,20.60
2018-09-03T15:34:30.242Z,20.60
2018-09-03T15:36:58.640Z,20.60
2018-09-03T15:39:27.074Z,20.60
2018-09-03T15:41:55.944Z,20.60
2018-09-03T15:44:24.386Z,20.50
2018-09-03T15:46:52.806Z,20.50
2018-09-03T15:49:21.207Z,20.50
2018-09-03T15:51:49.854Z,20.50
2018-09-03T15:54:18.240Z,20.50
2018-09-03T15:56:46.765Z,20.50
2018-09-03T15:59:15.253Z,20.60
2018-09-03T16:01:43.647Z,20.60
2018-09-03T16:04:12.084Z,20.60
2018-09-03T16:06:40.899Z,20.50
2018-09-03T16:09:10.659Z,20.40
2018-09-03T16:11:39.129Z,20.30
2018-09-03T16:14:08.533Z,20.30
2018-09-03T16:16:37.069Z,20.20
2018-09-03T16:19:05.622Z,20.20
2018-09-03T16:21:34.044Z,20.00
2018-09-03T16:24:02.439Z,20.00
2018-09-03T16:26:30.834Z,20.00
2018-09-03T16:28:59.237Z,19.90
2018-09-03T16:31:27.650Z,19.80
2018-09-03T16:33:56.157Z,19.80
2018-09-03T16:36:24.557Z,19.80
2018-09-03T16:38:53.047Z,19.70
2018-09-03T16:41:21.370Z,19.70
2018-09-03T16:43:49.792Z,19.60
2018-09-03T16:46:18.195Z,19.60
2018-09-03T16:48:47.451Z,19.60
2018-09-03T16:51:15.860Z,19.50
2018-09-03T16:53:44.928Z,19.50
2018-09-03T16:56:14.057Z,19.40
2018-09-03T16:58:42.465Z,19.40
2018-09-03T17:01:10.933Z,19.40
2018-09-03T17:03:39.312Z,19.30
2018-09-03T17:06:08.346Z,19.30
2018-09-03T17:08:36.760Z,19.20
2018-09-03T17:11:05.219Z,19.20
2018-09-03T17:13:33.694Z,19.20
2018-09-03T17:16:02.048Z,19.10
2018-09-03T17:18:30.448Z,19.10
2018-09-03T17:20:58.846Z,19.10
2018-09-03T17:23:27.422Z,19.00
2018-09-03T17:25:58.958Z,18.90
2018-09-03T17:28:29.484Z,18.90
2018-09-03T17:31:02.574Z,18.80
2018-09-03T17:33:33.205Z,18.80
2018-09-03T17:36:01.728Z,18.70
2018-09-03T17:38:30.136Z,18.70
2018-09-03T17:40:58.752Z,18.70
2018-09-03T17:43:27.250Z,18.60
2018-09-03T17:45:55.731Z,18.60
2018-09-03T17:48:24.326Z,18.60
2018-09-03T17:50:52.802Z,18.50
2018-09-03T17:53:21.231Z,18.60
2018-09-03T17:55:49.677Z,18.50
2018-09-03T17:58:18.087Z,18.50
2018-09-03T18:00:46.974Z,18.50
2018-09-03T18:03:15.416Z,18.40
2018-09-03T18:05:45.860Z,18.40
2018-09-03T18:08:14.316Z,18.30
2018-09-03T18:10:42.798Z,18.30
2018-09-03T18:13:11.195Z,18.30
2018-09-03T18:15:39.611Z,18.20
2018-09-03T18:18:08.351Z,18.20
2018-09-03T18:20:36.743Z,18.20
2018-09-03T18:23:05.688Z,18.30
2018-09-03T18:25:34.104Z,18.20
2018-09-03T18:28:02.504Z,18.20
2018-09-03T18:30:34.686Z,18.20
2018-09-03T18:33:03.109Z,18.10
2018-09-03T18:35:31.549Z,18.10
2018-09-03T18:37:59.989Z,18.10
2018-09-03T18:40:28.421Z,18.00
2018-09-03T18:42:57.169Z,18.00
2018-09-03T18:45:27.215Z,18.00
2018-09-03T18:47:56.455Z,18.00
2018-09-03T18:50:24.870Z,18.00
2018-09-03T18:52:53.701Z,17.90
2018-09-03T18:55:22.086Z,17.90
2018-09-03T18:57:50.490Z,17.90
2018-09-03T19:00:19.404Z,17.90
2018-09-03T19:02:47.808Z,17.90
2018-09-03T19:05:16.237Z,17.90
2018-09-03T19:07:44.637Z,17.80
2018-09-03T19:10:13.042Z,17.80
2018-09-03T19:12:41.456Z,17.80
2018-09-03T19:15:10.154Z,17.80
2018-09-03T19:17:38.572Z,17.80
2018-09-03T19:20:06.994Z,17.80
2018-09-03T19:22:35.386Z,17.80
2018-09-03T19:25:03.826Z,17.80
2018-09-03T19:27:32.316Z,17.80
2018-09-03T19:30:00.802Z,17.80
2018-09-03T19:32:29.384Z,17.90
2018-09-03T19:34:58.109Z,17.90
2018-09-03T19:37:26.516Z,17.80
2018-09-03T19:39:54.935Z,17.90
2018-09-03T19:42:23.364Z,17.90
2018-09-03T19:44:51.808Z,17.90
2018-09-03T19:47:20.264Z,17.90
2018-09-03T19:49:48.674Z,17.90
2018-09-03T19:52:17.070Z,17.90
2018-09-03T19:54:45.464Z,17.90
2018-09-03T19:57:13.862Z,18.00
2018-09-03T19:59:43.211Z,18.00
2018-09-03T20:02:11.623Z,18.00
2018-09-03T20:04:40.050Z,18.00
2018-09-03T20:07:08.467Z,18.00
2018-09-03T20:09:36.894Z,18.10
2018-09-03T20:12:06.169Z,18.10
2018-09-03T20:14:34.637Z,18.10
2018-09-03T20:17:03.738Z,18.10
2018-09-03T20:19:32.175Z,18.10
2018-09-03T20:22:01.356Z,18.00
2018-09-03T20:24:33.766Z,18.00
2018-09-03T20:27:03.171Z,18.10
2018-09-03T20:29:33.241Z,18.00
2018-09-03T20:32:03.348Z,18.10
2018-09-03T20:34:32.187Z,18.10
2018-09-03T20:37:01.311Z,18.10
2018-09-03T20:39:29.730Z,18.10
2018-09-03T20:41:58.273Z,18.00
2018-09-03T20:44:27.114Z,18.10
2018-09-03T20:46:55.780Z,18.10
2018-09-03T20:49:24.185Z,18.10
2018-09-03T20:51:52.642Z,18.10
2018-09-03T20:54:21.049Z,18.10
2018-09-03T20:56:49.460Z,18.20
2018-09-03T20:59:18.392Z,18.20
2018-09-03T21:01:46.800Z,18.20
2018-09-03T21:04:15.663Z,18.20
2018-09-03T21:06:44.076Z,18.20
2018-09-03T21:09:12.474Z,18.20
2018-09-03T21:11:40.869Z,18.20
2018-09-03T21:14:09.277Z,18.30
2018-09-03T21:16:37.907Z,18.30
2018-09-03T21:19:06.298Z,18.30
2018-09-03T21:21:34.744Z,18.30
2018-09-03T21:24:04.191Z,18.30
2018-09-03T21:26:32.572Z,18.30
2018-09-03T21:29:00.978Z,18.30
2018-09-03T21:31:29.818Z,18.30
2018-09-03T21:33:58.220Z,18.40
2018-09-03T21:36:26.615Z,18.40
2018-09-03T21:38:55.009Z,18.40
2018-09-03T21:41:23.423Z,18.40
2018-09-03T21:43:51.811Z,18.40
2018-09-03T21:46:20.232Z,18.50
2018-09-03T21:48:48.640Z,18.50
2018-09-03T21:51:17.032Z,18.50
2018-09-03T21:53:45.430Z,18.50
2018-09-03T21:56:14.117Z,18.60
2018-09-03T21:58:42.527Z,18.60
2018-09-03T22:01:11.093Z,18.60
2018-09-03T22:03:39.491Z,18.60
2018-09-03T22:06:08.569Z,18.60
2018-09-03T22:08:37.058Z,18.60
2018-09-03T22:11:05.995Z,18.60
2018-09-03T22:13:34.395Z,18.60
2018-09-03T22:16:02.814Z,18.60
2018-09-03T22:18:31.251Z,18.60
2018-09-03T22:20:59.671Z,18.50
2018-09-03T22:23:28.459Z,18.50
2018-09-03T22:25:56.878Z,18.50
2018-09-03T22:28:25.287Z,18.50
2018-09-03T22:30:53.690Z,18.50
2018-09-03T22:33:22.080Z,18.50
2018-09-03T22:35:50.982Z,18.50
2018-09-03T22:38:19.378Z,18.50
2018-09-03T22:40:47.788Z,18.50
2018-09-03T22:43:16.189Z,18.50
2018-09-03T22:45:44.596Z,18.50
2018-09-03T22:48:13.398Z,18.50
2018-09-03T22:50:41.804Z,18.50
2018-09-03T22:53:10.190Z,18.40
2018-09-03T22:55:38.851Z,18.40
2018-09-03T22:58:07.251Z,18.40
2018-09-03T23:00:35.641Z,18.40
2018-09-03T23:03:04.041Z,18.40
2018-09-03T23:05:32.707Z,18.40
2018-09-03T23:08:01.043Z,18.40
2018-09-03T23:10:29.447Z,18.40
2018-09-03T23:12:58.726Z,18.40
2018-09-03T23:15:27.703Z,18.30
2018-09-03T23:17:56.111Z,18.40
2018-09-03T23:20:24.529Z,18.30
2018-09-03T23:22:52.949Z,18.30
2018-09-03T23:25:21.345Z,18.30
2018-09-03T23:27:49.742Z,18.40
2018-09-03T23:30:18.155Z,18.30
2018-09-03T23:32:46.553Z,18.30
2018-09-03T23:35:14.957Z,18.30
2018-09-03T23:37:43.349Z,18.30
2018-09-03T23:40:11.746Z,18.30
2018-09-03T23:42:40.521Z,18.30
2018-09-03T23:45:08.929Z,18.30
2018-09-03T23:47:38.123Z,18.20
2018-09-03T23:50:07.021Z,18.20
2018-09-03T23:52:35.424Z,18.30
2018-09-03T23:55:03.829Z,18.20
2018-09-03T23:57:32.277Z,18.20
